Latest Weather Observations for Blackall

IDQ60801

Issued at 3:35 pm EST Wednesday 1 October 2014 (issued every 30 minutes, with the page automatically refreshed every 10 minutes)

About weather observations | Map of weather stations | Latest weather observations for QLD | Other Formats
Station Details ID: 036034 Name: BLACKALL AIRPORT Lat: -24.43 Lon: 145.43 Height: 281.3 m
Data from the previous 72 hours. | See also: Recent months at Blackall
Date/Time
EST
Temp
°C
App
Temp
°C
Dew
Point
Rel
Hum
%
Delta-T
°C
Wind Press
QNH
hPa
Press
MSL
hPa
Rain
since 9 am
mm
Dir
 
Spd
km/h
Gust
km/h
Spd
kts
Gust
kts
01/03:30pm 33.1 29.3 5.6 18 14.9 SSE 15 22 8 12 1015.5 1014.0 -
01/03:00pm 32.9 29.6 6.2 19 14.6 SSE 13 20 7 11 1015.8 1014.3 -
01/02:30pm 32.4 29.1 6.6 20 14.1 SE 13 19 7 10 1016.1 1014.7 -
01/02:00pm 32.2 29.8 7.1 21 13.8 E 9 15 5 8 1016.6 1015.2 -
01/01:30pm 32.7 30.4 7.5 21 14.0 SSE 9 17 5 9 1017.0 1015.6 -
01/01:00pm 31.2 28.9 7.6 23 13.0 SE 9 17 5 9 1017.6 1016.2 -
01/12:30pm 31.0 29.2 8.1 24 12.8 SW 7 13 4 7 1018.1 1016.6 -
01/12:00pm 30.1 28.6 8.5 26 12.0 NW 6 15 3 8 1018.6 1017.1 -
01/11:30am 29.8 27.4 8.8 27 11.8 NNW 11 20 6 11 1019.2 1017.8 0.0
01/11:00am 28.5 24.9 8.2 28 11.2 N 17 28 9 15 1019.2 1017.8 0.0
01/10:00am 27.3 24.9 10.1 34 9.7 N 13 20 7 11 1020.4 1019.0 0.0
01/09:30am 26.4 24.9 10.5 37 9.0 NNW 9 17 5 9 1021.1 1020.1 0.0
01/09:00am 25.0 22.0 10.8 41 8.0 N 17 22 9 12 1020.4 1019.4 -
01/08:30am 22.8 - 10.6 46 6.8 - - - - - 1020.3 1019.3 -
01/06:00am 16.0 14.1 7.5 57 4.3 NNE 7 9 4 5 1018.6 1017.5 -
01/05:30am 16.2 14.0 7.7 57 4.3 NE 9 11 5 6 1018.1 1017.0 -
01/05:00am 16.8 14.6 7.7 55 4.6 NE 9 13 5 7 1017.6 1016.6 -
01/04:30am 17.3 14.8 8.2 55 4.7 NE 11 13 6 7 1017.3 1016.3 -
01/04:00am 17.2 14.7 8.4 56 4.6 ENE 11 13 6 7 1017.0 1016.0 -
01/03:30am 17.3 15.5 7.9 54 4.8 ENE 7 9 4 5 1017.0 1016.0 -
01/03:00am 17.7 15.6 8.3 54 4.9 NE 9 11 5 6 1016.9 1015.9 0.0
01/02:30am 18.0 15.8 8.0 52 5.2 NE 9 11 5 6 1016.9 1015.9 -
01/02:00am 18.5 16.4 8.2 51 5.4 NE 9 13 5 7 1016.9 1015.9 -
01/01:30am 18.9 16.7 8.0 49 5.7 NE 9 13 5 7 1017.0 1016.0 -
01/01:00am 19.4 17.2 7.8 47 6.0 NE 9 9 5 5 1017.2 1016.2 -
01/12:30am 19.7 17.6 8.1 47 6.1 NE 9 9 5 5 1017.5 1016.5 -
01/12:00am 19.9 17.7 7.9 46 6.3 NE 9 13 5 7 1017.6 1016.6 -
 
Date/Time
EST
Temp
°C
App
Temp
°C
Dew
Point
Rel
Hum
%
Delta-T
°C
Wind Press
QNH
hPa
Press
MSL
hPa
Rain
since 9 am
mm
Dir
 
Spd
km/h
Gust
km/h
Spd
kts
Gust
kts
30/11:30pm 20.6 18.0 7.6 43 6.8 NE 11 13 6 7 1017.9 1016.8 -
30/11:00pm 21.1 18.5 7.7 42 7.0 NE 11 13 6 7 1017.7 1016.7 -
30/10:30pm 20.6 18.8 7.2 42 6.9 NNE 6 7 3 4 1017.6 1016.6 -
30/10:00pm 21.9 19.6 7.3 39 7.6 NNE 9 13 5 7 1017.6 1016.6 -
30/09:30pm 22.1 19.6 6.7 37 8.0 NE 9 13 5 7 1017.6 1016.6 -
30/09:00pm 22.7 20.1 6.0 34 8.6 NE 9 13 5 7 1017.6 1016.6 0.0
30/08:30pm 23.0 20.3 5.4 32 9.0 NE 9 13 5 7 1017.5 1016.5 -
30/08:00pm 24.3 21.2 5.6 30 9.6 NE 11 13 6 7 1017.2 1016.2 -
30/07:30pm 25.7 22.5 5.3 27 10.5 NE 11 13 6 7 1017.0 1016.0 -
30/07:00pm 26.5 23.6 6.5 28 10.6 NE 11 13 6 7 1016.8 1015.8 -
30/06:30pm 28.1 25.0 5.6 24 11.8 NE 11 13 6 7 1016.4 1015.4 -
30/06:00pm 29.8 27.4 4.4 20 13.2 NE 6 11 3 6 1016.1 1015.1 -
30/05:30pm 31.0 28.9 3.9 18 14.1 W 4 7 2 4 1015.8 1014.8 -
30/05:00pm 31.5 29.1 5.1 19 14.0 E 7 13 4 7 1015.6 1014.5 -
30/04:30pm 31.7 29.3 5.3 19 14.1 N 7 15 4 8 1015.5 1014.4 -
30/04:00pm 32.1 30.0 4.0 17 14.7 E 4 11 2 6 1015.4 1014.3 -
30/03:30pm 31.4 28.2 5.0 19 14.0 ENE 11 24 6 13 1015.6 1014.5 -
30/03:00pm 31.7 28.3 6.0 20 13.9 ENE 13 19 7 10 1015.8 1014.8 -
30/02:30pm 31.3 27.6 6.4 21 13.5 N 15 22 8 12 1016.1 1015.1 -
30/02:00pm 30.8 27.5 6.6 22 13.1 ENE 13 22 7 12 1016.4 1015.4 -
30/01:30pm 30.9 29.9 7.4 23 12.9 SW 2 11 1 6 1016.8 1015.8 -
30/01:00pm 30.6 28.3 8.9 26 12.2 NNW 11 19 6 10 1017.4 1016.4 -
30/12:30pm 29.6 27.4 9.2 28 11.5 N 11 20 6 11 1017.9 1016.8 -
30/12:00pm 29.3 27.6 9.9 30 11.0 NNW 9 13 5 7 1018.6 1017.5 -
30/11:30am 28.4 24.7 10.1 32 10.4 N 20 28 11 15 1019.3 1018.3 0.0
30/11:00am 27.9 25.1 11.5 36 9.5 NNE 17 28 9 15 1019.9 1018.9 0.0
30/10:30am 27.2 24.7 11.2 36 9.2 NNE 15 22 8 12 1020.3 1019.3 0.0
30/10:00am 26.3 23.0 11.6 40 8.5 N 20 32 11 17 1020.5 1019.5 0.0
30/09:30am 25.2 21.5 11.4 42 7.9 N 22 30 12 16 1020.8 1019.8 0.0
30/09:00am 24.7 20.9 12.3 46 7.2 N 24 30 13 16 1020.7 1019.7 -
30/08:30am 23.6 20.3 12.9 51 6.2 N 22 30 12 16 1020.6 1019.6 -
30/08:00am 22.3 19.9 12.5 53 5.6 NNE 17 24 9 13 1020.4 1019.4 -
30/07:30am 20.5 18.2 11.7 57 5.0 NNE 15 19 8 10 1020.1 1019.1 -
30/07:00am 18.7 16.9 11.0 61 4.2 NE 11 15 6 8 1019.7 1018.7 -
30/06:30am 16.6 14.7 10.5 67 3.3 ENE 11 15 6 8 1019.2 1018.2 -
30/06:00am 15.7 14.3 9.4 66 3.3 NNE 7 9 4 5 1018.7 1017.6 -
30/05:30am 16.1 14.4 9.8 66 3.3 NNE 9 13 5 7 1018.3 1017.2 -
30/05:00am 16.3 14.9 9.5 64 3.6 NNE 7 9 4 5 1017.9 1016.8 -
30/04:30am 17.1 14.9 9.3 60 4.1 NNE 11 15 6 8 1017.5 1016.5 -
30/04:00am 17.5 15.7 9.4 59 4.3 NNE 9 11 5 6 1017.3 1016.3 -
30/03:30am 17.5 15.7 9.4 59 4.3 NNE 9 11 5 6 1017.1 1016.1 -
30/03:00am 17.7 15.0 9.1 57 4.5 NNE 13 15 7 8 1017.2 1016.2 0.0
30/02:30am 17.9 15.5 8.5 54 4.9 NE 11 13 6 7 1017.3 1016.3 -
30/02:00am 18.3 16.3 8.6 53 5.1 NE 9 11 5 6 1017.4 1016.4 -
30/01:30am 18.8 16.8 8.5 51 5.4 NE 9 11 5 6 1017.6 1016.6 -
30/01:00am 19.5 17.5 8.5 49 5.8 NE 9 11 5 6 1017.7 1016.7 -
30/12:30am 20.7 18.3 8.7 46 6.4 NNE 11 17 6 9 1017.7 1016.7 -
30/12:00am 21.7 18.1 8.2 42 7.2 NNE 17 20 9 11 1018.1 1017.0 -
 
Date/Time
EST
Temp
°C
App
Temp
°C
Dew
Point
Rel
Hum
%
Delta-T
°C
Wind Press
QNH
hPa
Press
MSL
hPa
Rain
since 9 am
mm
Dir
 
Spd
km/h
Gust
km/h
Spd
kts
Gust
kts
29/11:30pm 22.0 19.1 8.2 41 7.3 NNE 13 19 7 10 1018.1 1017.0 -
29/11:00pm 22.1 18.8 7.9 40 7.5 NE 15 20 8 11 1018.2 1017.1 -
29/10:30pm 22.1 18.7 7.5 39 7.7 NE 15 19 8 10 1018.3 1017.2 -
29/10:00pm 21.8 19.5 7.6 40 7.5 NNE 9 13 5 7 1018.4 1017.3 -
29/09:30pm 22.4 20.2 7.8 39 7.7 NNE 9 11 5 6 1018.5 1017.4 -
29/09:00pm 22.3 19.6 7.3 38 7.9 NE 11 17 6 9 1018.3 1017.2 -
29/08:30pm 23.6 21.0 7.7 36 8.5 NNE 11 15 6 8 1017.9 1016.8 -
29/08:00pm 24.4 21.6 7.1 33 9.1 NNE 11 15 6 8 1017.4 1016.4 -
29/07:00pm 25.5 23.0 6.7 30 9.9 NNE 9 13 5 7 1016.7 1015.7 0.0
29/06:30pm 27.0 24.1 6.4 27 10.9 NE 11 13 6 7 1016.4 1015.4 0.0
29/06:00pm 28.7 25.8 6.7 25 11.8 NNE 11 15 6 8 1016.1 1015.1 0.0
29/05:30pm 29.8 26.5 6.5 23 12.6 NNE 13 17 7 9 1015.8 1014.8 0.0
29/05:00pm 30.6 27.2 5.8 21 13.3 ENE 13 24 7 13 1015.5 1014.4 0.0
29/04:30pm 30.6 27.6 5.8 21 13.3 NE 11 20 6 11 1015.2 1014.1 0.0
29/04:00pm 31.0 27.1 5.4 20 13.6 E 15 22 8 12 1015.3 1014.2 0.0
29/03:30pm 31.5 28.8 5.8 20 13.8 E 9 19 5 10 1015.3 1014.2 0.0
29/03:00pm 30.9 27.6 4.6 19 13.8 E 11 22 6 12 1015.6 1014.5 0.0
29/02:30pm 31.4 27.8 5.0 19 14.0 NNE 13 24 7 13 1015.9 1014.9 0.0
29/02:00pm 30.6 27.9 5.8 21 13.3 W 9 13 5 7 1016.1 1015.1 0.0
29/01:30pm 30.2 25.8 4.8 20 13.4 E 17 22 9 12 1016.5 1015.5 0.0
29/01:00pm 29.9 26.6 6.5 23 12.6 NNE 13 24 7 13 1017.1 1016.1 0.0
29/12:30pm 30.1 26.6 7.3 24 12.5 N 15 26 8 14 1017.4 1016.4 0.0
29/12:00pm 29.1 25.1 6.5 24 12.1 N 17 28 9 15 1017.9 1016.8 0.0
29/11:30am 28.7 25.0 7.9 27 11.4 NNE 17 22 9 12 1018.5 1017.4 0.0
29/11:00am 27.9 24.0 8.7 30 10.6 NNE 19 26 10 14 1018.7 1017.6 0.0
29/10:30am 27.6 24.4 11.2 36 9.5 NNE 19 26 10 14 1019.0 1018.0 0.0
29/10:00am 26.4 22.5 10.9 38 8.8 N 22 30 12 16 1019.2 1018.2 0.0
29/09:30am 25.0 21.1 10.8 41 8.0 N 22 30 12 16 1019.3 1018.3 0.0
29/09:00am 24.0 20.4 10.7 43 7.5 N 20 32 11 17 1019.2 1018.2 0.0
29/08:30am 22.2 18.5 10.0 46 6.7 NNE 20 28 11 15 1019.1 1018.1 0.0
29/08:00am 21.3 17.5 9.9 48 6.2 NNE 20 32 11 17 1019.1 1018.1 0.0
29/07:30am 19.8 15.9 8.8 49 5.8 NNE 19 24 10 13 1018.9 1017.9 0.0
29/07:00am 17.0 14.6 7.1 52 5.0 NE 9 13 5 7 1018.5 1017.4 0.0
29/06:30am 14.9 11.9 6.0 55 4.3 NNE 11 15 6 8 1018.1 1017.0 0.0
29/06:00am 14.5 11.4 5.6 55 4.3 NE 11 13 6 7 1017.6 1016.6 0.0
29/05:30am 13.4 10.9 4.8 56 4.0 NE 7 7 4 4 1017.4 1016.4 0.0
29/05:00am 13.9 11.5 4.2 52 4.5 NE 6 7 3 4 1016.9 1015.9 0.0
29/04:30am 14.4 12.0 4.1 50 4.8 NE 6 7 3 4 1016.4 1015.4 0.0
29/04:00am 15.3 12.8 4.9 50 5.0 NE 7 9 4 5 1016.1 1015.1 0.0
29/03:30am 16.1 13.6 4.5 46 5.5 NNE 7 9 4 5 1015.9 1014.9 0.0
29/03:00am 16.9 13.6 4.6 44 5.9 NE 11 15 6 8 1015.9 1014.9 0.0
29/02:30am 17.6 14.0 4.9 43 6.2 NE 13 17 7 9 1016.2 1015.2 0.0
29/02:00am 17.7 14.1 5.0 43 6.2 ENE 13 15 7 8 1016.6 1015.6 0.0
29/01:30am 18.2 14.5 4.7 41 6.6 ENE 13 17 7 9 1017.0 1016.0 0.0
29/01:00am 18.4 14.8 4.9 41 6.6 ENE 13 15 7 8 1017.3 1016.3 0.0
29/12:30am 18.5 15.1 3.9 38 7.0 ENE 11 15 6 8 1017.4 1016.4 0.0
29/12:00am 19.8 15.6 3.9 35 7.7 ENE 15 20 8 11 1017.6 1016.6 0.0
 
Date/Time
EST
Temp
°C
App
Temp
°C
Dew
Point
Rel
Hum
%
Delta-T
°C
Wind Press
QNH
hPa
Press
MSL
hPa
Rain
since 9 am
mm
Dir
 
Spd
km/h
Gust
km/h
Spd
kts
Gust
kts
28/11:30pm 20.8 16.2 3.5 32 8.4 ENE 17 20 9 11 1017.7 1016.7 0.0
28/11:00pm 20.4 16.2 4.0 34 8.0 ENE 15 20 8 11 1017.9 1016.8 0.0
28/10:30pm 19.9 16.1 4.0 35 7.7 ENE 13 15 7 8 1018.1 1017.0 0.0
28/10:00pm 19.7 16.7 4.2 36 7.5 NNE 9 13 5 7 1018.2 1017.1 0.0
28/09:30pm 20.9 17.3 3.2 31 8.5 NE 11 11 6 6 1018.1 1017.0 0.0
28/09:00pm 21.4 18.3 3.6 31 8.6 ENE 9 11 5 6 1017.9 1016.8 0.0
28/08:30pm 21.4 18.4 4.0 32 8.5 ENE 9 11 5 6 1017.6 1016.6 0.0
28/08:00pm 21.5 18.7 3.2 30 8.8 ENE 7 9 4 5 1017.3 1016.3 0.0
28/07:30pm 23.4 20.5 2.8 26 10.0 NNE 7 11 4 6 1016.9 1015.9 0.0
28/07:00pm 25.0 22.1 2.4 23 11.0 NNE 7 9 4 5 1016.6 1015.6 0.0
28/06:30pm 26.7 23.3 1.9 20 12.1 NNE 9 13 5 7 1016.2 1015.2 0.0
28/06:00pm 28.1 25.0 1.6 18 13.0 NNE 7 9 4 5 1015.9 1014.9 0.0
28/05:30pm 29.4 25.3 0.1 15 14.1 NNE 11 19 6 10 1015.7 1014.7 0.0
28/05:00pm 30.0 25.7 -1.4 13 14.8 NE 11 19 6 10 1015.5 1014.4 0.0
28/04:30pm 30.4 26.2 -1.1 13 15.0 NNE 11 19 6 10 1015.4 1014.3 0.0
28/04:00pm 30.4 26.2 -1.1 13 15.0 NNW 11 17 6 9 1015.5 1014.4 0.0

Other Formats:

Comma delimited format used in spreadsheet applications
http://www.bom.gov.au/fwo/IDQ60801/IDQ60801.95351.axf

JavaScript Object Notation format (JSON) in row-major order
http://www.bom.gov.au/fwo/IDQ60801/IDQ60801.95351.json